Time;durP1;ratioP1;P1;durP2;ratioP2;P2;SDS_P1;SDS_P2;PMS_P1;PMS_P2;Temp;Humidity;BMP_temperature;BMP_pressure;BME280_temperature;BME280_humidity;BME280_pressure;Samples;Min_cycle;Max_cycle;Signal;HPM_P1;HPM_P2
2023/03/13 00:01:20;;;;;;;40.22;8.38;;;;;;;;;;4939947;28;20143;-67
2023/03/13 00:03:46;;;;;;;37.85;6.72;;;;;;;;;;4938596;28;20384;-67
2023/03/13 00:06:13;;;;;;;42.20;7.75;;;;;;;;;;4940148;28;20098;-67
2023/03/13 00:08:39;;;;;;;47.70;7.30;;;;;;;;;;4939336;28;20114;-67
2023/03/13 00:11:06;;;;;;;47.35;8.15;;;;;;;;;;4921206;28;20055;-67
2023/03/13 00:13:33;;;;;;;44.60;8.30;;;;;;;;;;4941302;28;20051;-67
2023/03/13 00:16:00;;;;;;;48.22;8.52;;;;;;;;;;4941473;28;20483;-67
2023/03/13 00:18:26;;;;;;;47.50;7.88;;;;;;;;;;4936761;28;20120;-67
2023/03/13 00:21:00;;;;;;;39.88;7.53;;;;;;;;;;4939785;28;20511;-67
2023/03/13 00:23:27;;;;;;;41.40;7.93;;;;;;;;;;4937386;28;20870;-67
2023/03/13 00:25:57;;;;;;;40.22;8.38;;;;;;;;;;4920888;29;20044;-67
2023/03/13 00:28:23;;;;;;;37.45;7.65;;;;;;;;;;4937161;28;20130;-67
2023/03/13 00:30:49;;;;;;;38.28;8.05;;;;;;;;;;4940380;28;20039;-67
2023/03/13 00:33:15;;;;;;;52.55;8.57;;;;;;;;;;4924650;28;20050;-67
2023/03/13 00:35:41;;;;;;;48.00;7.25;;;;;;;;;;4941678;28;20043;-67
2023/03/13 00:38:08;;;;;;;39.90;7.43;;;;;;;;;;4942606;28;20079;-67
2023/03/13 00:40:34;;;;;;;40.15;8.93;;;;;;;;;;4939302;28;20043;-67
2023/03/13 00:43:00;;;;;;;44.80;9.05;;;;;;;;;;4942963;28;20050;-67
2023/03/13 00:45:26;;;;;;;45.25;8.40;;;;;;;;;;4941419;28;20342;-67
2023/03/13 00:47:52;;;;;;;37.17;8.68;;;;;;;;;;4940826;28;20062;-67
2023/03/13 00:50:18;;;;;;;41.78;9.48;;;;;;;;;;4932979;28;20186;-67
2023/03/13 00:52:44;;;;;;;41.75;9.68;;;;;;;;;;4904946;29;21183;-66
2023/03/13 00:55:11;;;;;;;53.72;8.43;;;;;;;;;;4923335;29;20051;-66
2023/03/13 00:57:37;;;;;;;45.67;9.27;;;;;;;;;;4923118;29;20040;-66
2023/03/13 01:00:06;;;;;;;46.70;8.90;;;;;;;;;;4922335;29;20124;-66
2023/03/13 01:02:32;;;;;;;41.85;8.73;;;;;;;;;;4922519;29;20043;-66
2023/03/13 01:04:58;;;;;;;46.90;9.40;;;;;;;;;;4920783;29;20055;-67
2023/03/13 01:07:26;;;;;;;43.78;10.35;;;;;;;;;;4922894;29;20067;-67
2023/03/13 01:09:52;;;;;;;47.30;9.93;;;;;;;;;;4921905;29;20039;-67
2023/03/13 01:12:18;;;;;;;36.60;6.90;;;;;;;;;;4903651;29;20059;-67
2023/03/13 01:14:44;;;;;;;50.90;8.90;;;;;;;;;;4903149;29;20063;-67
2023/03/13 01:17:10;;;;;;;50.38;8.13;;;;;;;;;;4921103;29;20063;-67
2023/03/13 01:19:36;;;;;;;41.25;9.40;;;;;;;;;;4921246;29;20126;-67
2023/03/13 01:22:03;;;;;;;36.90;8.30;;;;;;;;;;4923180;29;20086;-67
2023/03/13 01:24:29;;;;;;;42.05;10.25;;;;;;;;;;4924430;29;20464;-67
2023/03/13 01:26:55;;;;;;;48.85;9.30;;;;;;;;;;4904929;29;20399;-67
2023/03/13 01:29:21;;;;;;;43.20;7.97;;;;;;;;;;4921352;29;20132;-66
2023/03/13 01:31:47;;;;;;;44.97;8.98;;;;;;;;;;4921973;29;20044;-66
2023/03/13 01:34:14;;;;;;;44.38;9.23;;;;;;;;;;4921891;29;20412;-67
2023/03/13 01:36:41;;;;;;;35.53;8.32;;;;;;;;;;4923026;29;20499;-66
2023/03/13 01:39:07;;;;;;;59.25;11.00;;;;;;;;;;4907783;29;20415;-66
2023/03/13 01:41:33;;;;;;;49.92;10.23;;;;;;;;;;4904950;29;20094;-66
2023/03/13 01:43:59;;;;;;;45.92;8.05;;;;;;;;;;4899313;29;20044;-66
2023/03/13 01:46:26;;;;;;;48.97;9.40;;;;;;;;;;4903927;29;20478;-66
2023/03/13 01:49:02;;;;;;;50.83;10.95;;;;;;;;;;4921485;29;20110;-66
2023/03/13 01:51:29;;;;;;;60.28;10.60;;;;;;;;;;4936341;28;20059;-67
2023/03/13 01:53:59;;;;;;;51.85;9.52;;;;;;;;;;4944462;28;20043;-67
2023/03/13 01:56:29;;;;;;;39.28;9.85;;;;;;;;;;4942594;28;20491;-67
2023/03/13 01:58:56;;;;;;;56.22;11.35;;;;;;;;;;4942117;28;20043;-66
2023/03/13 02:01:23;;;;;;;41.58;9.57;;;;;;;;;;4939419;28;20055;-67
2023/03/13 02:03:49;;;;;;;50.72;12.82;;;;;;;;;;4940981;28;21002;-67
2023/03/13 02:06:16;;;;;;;44.60;11.23;;;;;;;;;;4939386;28;20061;-66
2023/03/13 02:08:48;;;;;;;56.13;13.05;;;;;;;;;;4937976;28;20059;-66
2023/03/13 02:11:15;;;;;;;60.05;14.45;;;;;;;;;;4921855;28;20071;-66
2023/03/13 02:13:42;;;;;;;52.95;12.60;;;;;;;;;;4923788;28;20192;-66
2023/03/13 02:16:08;;;;;;;44.90;12.35;;;;;;;;;;4921207;29;20047;-66
2023/03/13 02:18:36;;;;;;;46.33;12.45;;;;;;;;;;4939004;28;20046;-66
2023/03/13 02:21:12;;;;;;;51.85;14.20;;;;;;;;;;4940390;28;20119;-67
2023/03/13 02:23:41;;;;;;;47.88;11.85;;;;;;;;;;4938087;28;20055;-66
2023/03/13 02:26:07;;;;;;;38.60;11.85;;;;;;;;;;4940248;28;20558;-66
2023/03/13 02:28:35;;;;;;;42.13;11.75;;;;;;;;;;4939046;28;20058;-66
2023/03/13 02:31:01;;;;;;;57.05;13.30;;;;;;;;;;4921236;29;20063;-66
2023/03/13 02:33:30;;;;;;;41.80;12.15;;;;;;;;;;4940441;28;20059;-66
2023/03/13 02:35:56;;;;;;;35.35;12.55;;;;;;;;;;4924462;28;20078;-66
2023/03/13 02:38:24;;;;;;;32.38;10.88;;;;;;;;;;4939558;28;20093;-66
2023/03/13 02:40:52;;;;;;;25.80;10.45;;;;;;;;;;4925475;28;20527;-65
2023/03/13 02:43:20;;;;;;;32.67;12.23;;;;;;;;;;4941628;29;20459;-66
2023/03/13 02:46:01;;;;;;;38.10;12.50;;;;;;;;;;4940497;28;20039;-66
2023/03/13 02:48:31;;;;;;;36.00;12.10;;;;;;;;;;4940546;28;20127;-66
2023/03/13 02:50:57;;;;;;;37.05;12.05;;;;;;;;;;4930903;28;20059;-66
2023/03/13 02:53:23;;;;;;;29.70;12.45;;;;;;;;;;4942072;28;20046;-66
2023/03/13 02:55:49;;;;;;;31.75;12.10;;;;;;;;;;4939590;28;20053;-66
2023/03/13 02:58:15;;;;;;;30.63;12.10;;;;;;;;;;4939591;28;20154;-66
2023/03/13 03:00:42;;;;;;;28.90;12.18;;;;;;;;;;4942688;28;20421;-66
2023/03/13 03:03:08;;;;;;;33.22;13.05;;;;;;;;;;4943871;28;20498;-66
2023/03/13 03:05:34;;;;;;;29.35;11.20;;;;;;;;;;4940198;28;20058;-66
2023/03/13 03:08:00;;;;;;;25.10;10.27;;;;;;;;;;4939175;28;20776;-66
2023/03/13 03:10:26;;;;;;;32.58;11.63;;;;;;;;;;4941006;28;20102;-66
2023/03/13 03:12:52;;;;;;;27.00;11.35;;;;;;;;;;4938627;28;20049;-66
2023/03/13 03:15:19;;;;;;;29.42;12.20;;;;;;;;;;4941285;28;20065;-66
2023/03/13 03:17:45;;;;;;;22.30;10.77;;;;;;;;;;4940960;28;20524;-66
2023/03/13 03:20:11;;;;;;;25.67;11.27;;;;;;;;;;4934999;28;20498;-65
2023/03/13 03:22:39;;;;;;;24.95;10.80;;;;;;;;;;4939718;28;20042;-65
2023/03/13 03:25:06;;;;;;;29.23;12.27;;;;;;;;;;4939025;28;20063;-64
2023/03/13 03:27:32;;;;;;;25.50;11.20;;;;;;;;;;4937592;28;20058;-65
2023/03/13 03:29:58;;;;;;;21.92;11.07;;;;;;;;;;4935973;28;20102;-65
2023/03/13 03:32:24;;;;;;;24.38;11.32;;;;;;;;;;4938946;28;20117;-65
2023/03/13 03:34:50;;;;;;;20.55;10.55;;;;;;;;;;4939308;28;20094;-66
2023/03/13 03:37:16;;;;;;;21.27;11.27;;;;;;;;;;4939540;28;21160;-65
2023/03/13 03:39:43;;;;;;;26.33;10.95;;;;;;;;;;4941462;28;20047;-65
2023/03/13 03:42:09;;;;;;;22.80;10.07;;;;;;;;;;4939094;28;20477;-65
2023/03/13 03:44:35;;;;;;;31.75;12.00;;;;;;;;;;4937977;28;20055;-66
2023/03/13 03:47:01;;;;;;;27.00;11.82;;;;;;;;;;4939534;28;20157;-66
2023/03/13 03:49:27;;;;;;;23.10;11.65;;;;;;;;;;4937715;28;20043;-66
2023/03/13 03:51:54;;;;;;;23.90;11.30;;;;;;;;;;4938991;28;20047;-66
2023/03/13 03:54:20;;;;;;;21.92;11.52;;;;;;;;;;4940978;28;20073;-66
2023/03/13 03:56:46;;;;;;;21.45;11.57;;;;;;;;;;4939329;28;20107;-66
2023/03/13 03:59:12;;;;;;;23.63;11.85;;;;;;;;;;4941380;28;20039;-66
2023/03/13 04:01:38;;;;;;;27.02;12.35;;;;;;;;;;4940270;28;20047;-66
2023/03/13 04:04:04;;;;;;;26.65;13.38;;;;;;;;;;4940815;28;20155;-66
2023/03/13 04:06:30;;;;;;;33.00;15.25;;;;;;;;;;4943291;28;20051;-65
2023/03/13 04:08:57;;;;;;;34.17;17.13;;;;;;;;;;4940847;28;20053;-66
2023/03/13 04:11:23;;;;;;;31.70;16.77;;;;;;;;;;4940584;28;20053;-66
2023/03/13 04:13:49;;;;;;;40.38;19.70;;;;;;;;;;4942561;28;20053;-66
2023/03/13 04:16:15;;;;;;;40.58;18.88;;;;;;;;;;4923398;29;20706;-66
2023/03/13 04:18:41;;;;;;;37.65;19.02;;;;;;;;;;4925347;29;20066;-66
2023/03/13 04:21:07;;;;;;;43.13;20.60;;;;;;;;;;4925563;28;20047;-66
2023/03/13 04:23:33;;;;;;;43.10;20.00;;;;;;;;;;4941071;28;22067;-66
2023/03/13 04:25:59;;;;;;;48.63;21.17;;;;;;;;;;4919829;28;20498;-66
2023/03/13 04:28:25;;;;;;;45.13;21.95;;;;;;;;;;4921187;29;20086;-66
2023/03/13 04:30:56;;;;;;;50.55;22.52;;;;;;;;;;4921893;29;20690;-66
2023/03/13 04:33:22;;;;;;;48.22;23.17;;;;;;;;;;4924404;29;20094;-66
2023/03/13 04:35:48;;;;;;;48.45;22.27;;;;;;;;;;4942083;28;20043;-67
2023/03/13 04:38:15;;;;;;;43.25;22.20;;;;;;;;;;4941177;28;20043;-67
2023/03/13 04:40:42;;;;;;;52.55;22.77;;;;;;;;;;4940668;28;20166;-67
2023/03/13 04:43:08;;;;;;;50.85;20.63;;;;;;;;;;4924326;29;20078;-67
2023/03/13 04:45:34;;;;;;;37.13;17.88;;;;;;;;;;4940928;28;21442;-67
2023/03/13 04:48:00;;;;;;;46.05;17.15;;;;;;;;;;4923345;29;20055;-67
2023/03/13 04:50:27;;;;;;;42.55;16.90;;;;;;;;;;4939415;28;20051;-67
2023/03/13 04:52:53;;;;;;;40.00;15.93;;;;;;;;;;4938704;28;20073;-67
2023/03/13 04:55:19;;;;;;;47.28;15.90;;;;;;;;;;4937533;28;20463;-67
2023/03/13 04:57:45;;;;;;;43.97;14.95;;;;;;;;;;4937744;28;20514;-67
2023/03/13 05:00:11;;;;;;;44.85;13.05;;;;;;;;;;4941668;28;20075;-67
2023/03/13 05:02:38;;;;;;;30.25;12.30;;;;;;;;;;4941071;28;20610;-67
2023/03/13 05:05:04;;;;;;;43.15;12.18;;;;;;;;;;4937928;28;20043;-67
2023/03/13 05:07:30;;;;;;;33.65;11.20;;;;;;;;;;4937723;28;20051;-67
2023/03/13 05:09:56;;;;;;;37.60;10.13;;;;;;;;;;4923385;29;20560;-67
2023/03/13 05:12:22;;;;;;;23.10;9.45;;;;;;;;;;4938863;28;20451;-67
2023/03/13 05:14:49;;;;;;;26.60;9.68;;;;;;;;;;4924342;29;20443;-67
2023/03/13 05:17:16;;;;;;;32.38;8.55;;;;;;;;;;4922069;29;20047;-67
2023/03/13 05:19:42;;;;;;;22.98;7.32;;;;;;;;;;4940072;28;20047;-67
2023/03/13 05:22:09;;;;;;;25.70;8.20;;;;;;;;;;4943566;28;20151;-67
2023/03/13 05:24:35;;;;;;;25.70;8.52;;;;;;;;;;4943364;28;20051;-67
2023/03/13 05:27:01;;;;;;;27.08;7.78;;;;;;;;;;4942810;28;20050;-65
2023/03/13 05:29:27;;;;;;;25.83;7.40;;;;;;;;;;4939642;28;20483;-65
2023/03/13 05:31:53;;;;;;;22.20;8.00;;;;;;;;;;4944700;28;20189;-67
2023/03/13 05:34:19;;;;;;;25.52;8.38;;;;;;;;;;4942660;28;20120;-67
2023/03/13 05:36:46;;;;;;;23.38;8.25;;;;;;;;;;4943520;28;20043;-65
2023/03/13 05:39:12;;;;;;;22.75;7.78;;;;;;;;;;4945995;28;20094;-67
2023/03/13 05:41:38;;;;;;;30.17;9.00;;;;;;;;;;4944015;28;20047;-67
2023/03/13 05:44:04;;;;;;;29.23;8.05;;;;;;;;;;4944077;28;20051;-67
2023/03/13 05:46:31;;;;;;;33.55;9.20;;;;;;;;;;4944938;28;20054;-66
2023/03/13 05:48:57;;;;;;;28.10;8.50;;;;;;;;;;4919956;28;20094;-65
2023/03/13 05:51:23;;;;;;;31.88;8.65;;;;;;;;;;4942707;28;20066;-65
2023/03/13 05:53:49;;;;;;;38.40;11.18;;;;;;;;;;4940259;28;20047;-65
2023/03/13 05:56:15;;;;;;;30.73;10.77;;;;;;;;;;4940929;28;20098;-65
2023/03/13 05:58:41;;;;;;;26.33;8.63;;;;;;;;;;4944609;28;20043;-65
2023/03/13 06:01:09;;;;;;;35.70;9.05;;;;;;;;;;4945307;28;20130;-66
2023/03/13 06:03:35;;;;;;;32.08;10.18;;;;;;;;;;4944236;28;20479;-65
2023/03/13 06:06:02;;;;;;;29.35;9.23;;;;;;;;;;4944302;28;20196;-66
2023/03/13 06:08:28;;;;;;;29.83;9.15;;;;;;;;;;4940952;28;20051;-66
2023/03/13 06:10:54;;;;;;;26.75;8.77;;;;;;;;;;4942269;28;20070;-66
2023/03/13 06:13:20;;;;;;;34.25;8.88;;;;;;;;;;4926346;28;20063;-66
2023/03/13 06:15:52;;;;;;;28.67;9.63;;;;;;;;;;4943872;28;20126;-65
2023/03/13 06:18:18;;;;;;;31.88;9.15;;;;;;;;;;4926450;28;20049;-66
2023/03/13 06:20:44;;;;;;;39.67;8.20;;;;;;;;;;4944008;28;20194;-66
2023/03/13 06:23:10;;;;;;;42.80;8.93;;;;;;;;;;4941883;28;20102;-66
2023/03/13 06:25:37;;;;;;;32.50;7.93;;;;;;;;;;4943052;28;20070;-66
2023/03/13 06:28:03;;;;;;;23.58;6.82;;;;;;;;;;4937836;28;20055;-66
2023/03/13 06:30:29;;;;;;;26.35;7.10;;;;;;;;;;4940892;28;20051;-66
2023/03/13 06:32:57;;;;;;;31.15;7.25;;;;;;;;;;4943079;28;20456;-66
2023/03/13 06:35:23;;;;;;;29.30;7.28;;;;;;;;;;4940666;28;20199;-66
2023/03/13 06:37:49;;;;;;;31.20;7.85;;;;;;;;;;4943106;28;20122;-67
2023/03/13 06:40:16;;;;;;;25.15;7.38;;;;;;;;;;4928508;29;20085;-66
2023/03/13 06:42:42;;;;;;;27.63;6.78;;;;;;;;;;4930415;29;20063;-66
2023/03/13 06:45:08;;;;;;;22.70;6.55;;;;;;;;;;4929970;29;20054;-67
2023/03/13 06:47:34;;;;;;;26.60;6.93;;;;;;;;;;4948045;28;20039;-67
2023/03/13 06:50:00;;;;;;;24.67;6.25;;;;;;;;;;4941005;28;20347;-67
2023/03/13 06:52:27;;;;;;;23.05;5.78;;;;;;;;;;4925941;29;20047;-66
2023/03/13 06:54:53;;;;;;;25.33;6.53;;;;;;;;;;4906885;29;20110;-67
2023/03/13 06:57:19;;;;;;;24.63;6.00;;;;;;;;;;4908348;29;20052;-67
2023/03/13 06:59:45;;;;;;;29.52;7.65;;;;;;;;;;4928731;29;20086;-67
2023/03/13 07:02:12;;;;;;;28.02;6.85;;;;;;;;;;4907920;29;20050;-67
2023/03/13 07:04:38;;;;;;;24.63;5.20;;;;;;;;;;4890965;29;20052;-67
2023/03/13 07:07:04;;;;;;;28.10;5.75;;;;;;;;;;4927086;29;20039;-67
2023/03/13 07:09:30;;;;;;;25.38;5.97;;;;;;;;;;4908838;29;20472;-66
2023/03/13 07:11:57;;;;;;;26.15;6.70;;;;;;;;;;4928165;29;20044;-66
2023/03/13 07:14:23;;;;;;;24.02;6.78;;;;;;;;;;4927270;29;20087;-66
2023/03/13 07:16:50;;;;;;;23.77;5.88;;;;;;;;;;4926015;29;21237;-66
2023/03/13 07:19:16;;;;;;;31.55;6.95;;;;;;;;;;4924138;29;20114;-67
2023/03/13 07:21:43;;;;;;;30.80;6.00;;;;;;;;;;4910125;29;20487;-66
2023/03/13 07:24:09;;;;;;;24.10;6.75;;;;;;;;;;4908608;29;20118;-67
2023/03/13 07:26:35;;;;;;;23.17;5.28;;;;;;;;;;4909464;29;20114;-66
2023/03/13 07:29:01;;;;;;;21.17;6.43;;;;;;;;;;4928241;29;20043;-66
2023/03/13 07:31:29;;;;;;;23.52;6.25;;;;;;;;;;4909999;29;20487;-67
2023/03/13 07:33:55;;;;;;;26.80;6.75;;;;;;;;;;4906461;29;20130;-67
2023/03/13 07:36:21;;;;;;;25.48;6.40;;;;;;;;;;4905834;29;20466;-67
2023/03/13 07:38:48;;;;;;;23.83;5.18;;;;;;;;;;4903333;29;20055;-67
2023/03/13 07:41:14;;;;;;;28.33;4.85;;;;;;;;;;4920638;29;20040;-67
2023/03/13 07:43:40;;;;;;;23.48;6.30;;;;;;;;;;4910920;29;20043;-67
2023/03/13 07:46:08;;;;;;;29.00;6.07;;;;;;;;;;4909904;29;20487;-67
2023/03/13 07:48:36;;;;;;;21.52;4.50;;;;;;;;;;4926258;29;20110;-67
2023/03/13 07:51:02;;;;;;;19.40;4.88;;;;;;;;;;4910078;29;20095;-67
2023/03/13 07:53:29;;;;;;;26.55;5.20;;;;;;;;;;4926552;29;20051;-67
2023/03/13 07:55:57;;;;;;;24.88;5.28;;;;;;;;;;4927834;29;20349;-67
2023/03/13 07:58:24;;;;;;;17.98;4.68;;;;;;;;;;4927860;29;20062;-67
2023/03/13 08:00:50;;;;;;;19.60;4.80;;;;;;;;;;4909939;29;20527;-67
2023/03/13 08:03:16;;;;;;;29.27;5.75;;;;;;;;;;4927638;29;20066;-67
2023/03/13 08:05:42;;;;;;;18.00;5.70;;;;;;;;;;4924664;29;20126;-72
2023/03/13 08:08:09;;;;;;;18.52;5.18;;;;;;;;;;4923959;29;20452;-67
2023/03/13 08:10:35;;;;;;;14.98;4.30;;;;;;;;;;4927671;29;20130;-67
2023/03/13 08:13:01;;;;;;;17.02;4.30;;;;;;;;;;4927649;29;20048;-67
2023/03/13 08:15:27;;;;;;;20.10;4.95;;;;;;;;;;4909446;29;20142;-68
2023/03/13 08:17:54;;;;;;;21.95;6.43;;;;;;;;;;4925537;29;20073;-67
2023/03/13 08:20:20;;;;;;;18.73;5.18;;;;;;;;;;4928673;29;20079;-66
2023/03/13 08:22:46;;;;;;;18.35;4.90;;;;;;;;;;4929309;29;20091;-66
2023/03/13 08:25:13;;;;;;;15.82;4.28;;;;;;;;;;4930800;29;20052;-67
2023/03/13 08:27:40;;;;;;;20.25;5.18;;;;;;;;;;4928332;29;20119;-67
2023/03/13 08:30:07;;;;;;;17.25;4.93;;;;;;;;;;4908990;29;20559;-67
2023/03/13 08:32:33;;;;;;;24.17;5.55;;;;;;;;;;4929119;29;20127;-67
2023/03/13 08:34:59;;;;;;;22.75;5.68;;;;;;;;;;4927972;29;21222;-67
2023/03/13 08:37:25;;;;;;;25.40;4.80;;;;;;;;;;4908843;29;20043;-67
2023/03/13 08:39:55;;;;;;;24.05;4.90;;;;;;;;;;4912078;29;21555;-66
2023/03/13 08:42:21;;;;;;;19.33;3.85;;;;;;;;;;4911818;29;20423;-66
2023/03/13 08:44:47;;;;;;;13.57;4.32;;;;;;;;;;4926172;29;20601;-66
2023/03/13 08:47:13;;;;;;;20.00;3.75;;;;;;;;;;4908503;29;20044;-66
2023/03/13 08:49:39;;;;;;;14.00;4.18;;;;;;;;;;4912561;28;20062;-66
2023/03/13 08:52:06;;;;;;;23.00;4.93;;;;;;;;;;4924924;29;20123;-66
2023/03/13 08:54:32;;;;;;;17.63;4.00;;;;;;;;;;4950361;28;20070;-65
2023/03/13 08:56:59;;;;;;;19.10;4.00;;;;;;;;;;4934657;29;20047;-65
2023/03/13 08:59:25;;;;;;;15.88;3.80;;;;;;;;;;4951714;28;20050;-65
2023/03/13 09:01:51;;;;;;;15.98;4.03;;;;;;;;;;4949059;28;20040;-66
2023/03/13 09:04:19;;;;;;;17.80;4.10;;;;;;;;;;4952018;28;20039;-65
2023/03/13 09:06:45;;;;;;;19.27;4.05;;;;;;;;;;4952761;28;20047;-66
2023/03/13 09:09:12;;;;;;;16.63;4.45;;;;;;;;;;4934344;29;20051;-66
2023/03/13 09:11:38;;;;;;;15.32;3.30;;;;;;;;;;4950438;28;20047;-66
2023/03/13 09:14:05;;;;;;;16.90;4.07;;;;;;;;;;4946304;28;20529;-66
2023/03/13 09:16:32;;;;;;;23.00;4.50;;;;;;;;;;4948143;28;20043;-65
2023/03/13 09:18:58;;;;;;;11.05;3.70;;;;;;;;;;4952283;28;20107;-65
2023/03/13 09:21:26;;;;;;;15.98;4.60;;;;;;;;;;4933349;29;20043;-65
2023/03/13 09:23:52;;;;;;;20.05;3.72;;;;;;;;;;4931767;29;20078;-66
2023/03/13 09:26:19;;;;;;;31.33;5.78;;;;;;;;;;4950786;28;20067;-66
2023/03/13 09:28:45;;;;;;;24.02;4.10;;;;;;;;;;4946364;28;20055;-66
2023/03/13 09:31:13;;;;;;;18.00;5.22;;;;;;;;;;4949038;28;20395;-66
2023/03/13 09:33:40;;;;;;;13.82;3.92;;;;;;;;;;4929295;28;20047;-65
2023/03/13 09:36:06;;;;;;;17.27;4.35;;;;;;;;;;4947885;28;20475;-65
2023/03/13 09:38:33;;;;;;;20.05;4.45;;;;;;;;;;4949163;28;20051;-65
2023/03/13 09:41:02;;;;;;;18.52;4.38;;;;;;;;;;4948668;28;20486;-66
2023/03/13 09:43:29;;;;;;;24.63;4.88;;;;;;;;;;4946435;28;20129;-66
2023/03/13 09:45:58;;;;;;;24.13;5.30;;;;;;;;;;4947519;28;20075;-65
2023/03/13 09:48:36;;;;;;;17.63;3.80;;;;;;;;;;4948321;28;20406;-68
2023/03/13 09:51:06;;;;;;;21.73;5.05;;;;;;;;;;4935268;28;20058;-75
2023/03/13 09:53:38;;;;;;;18.48;4.00;;;;;;;;;;4911342;29;20435;-76
2023/03/13 09:56:06;;;;;;;21.65;4.85;;;;;;;;;;4911095;29;20056;-84
2023/03/13 09:58:33;;;;;;;15.43;3.83;;;;;;;;;;4912437;29;20047;-85
2023/03/13 10:01:02;;;;;;;22.20;4.70;;;;;;;;;;4929622;29;20035;-85
2023/03/13 10:03:31;;;;;;;26.58;4.65;;;;;;;;;;4928449;29;20036;-81
2023/03/13 10:06:00;;;;;;;18.25;3.80;;;;;;;;;;4927158;29;20048;-69
2023/03/13 10:08:27;;;;;;;22.63;4.80;;;;;;;;;;4925999;29;20122;-68
2023/03/13 10:10:58;;;;;;;20.13;4.50;;;;;;;;;;4932486;29;20067;-68
2023/03/13 10:13:24;;;;;;;19.25;4.25;;;;;;;;;;4931490;29;20693;-68
2023/03/13 10:15:54;;;;;;;25.52;5.45;;;;;;;;;;4931414;29;20075;-73
2023/03/13 10:18:22;;;;;;;21.13;4.47;;;;;;;;;;4931319;29;20048;-71
2023/03/13 10:20:50;;;;;;;21.75;4.93;;;;;;;;;;4932028;29;20511;-68
2023/03/13 10:23:19;;;;;;;19.38;4.78;;;;;;;;;;4931588;29;20079;-68
2023/03/13 10:25:45;;;;;;;26.80;4.75;;;;;;;;;;4932184;29;20044;-68
2023/03/13 10:28:12;;;;;;;25.67;6.20;;;;;;;;;;4931713;29;20058;-68
2023/03/13 10:30:42;;;;;;;27.98;5.55;;;;;;;;;;4913876;29;20056;-68
2023/03/13 10:33:09;;;;;;;28.15;5.72;;;;;;;;;;4929059;29;20122;-80
2023/03/13 10:35:36;;;;;;;29.10;5.68;;;;;;;;;;4909954;29;20058;-69
2023/03/13 10:38:05;;;;;;;28.17;5.85;;;;;;;;;;4926418;29;20050;-69
2023/03/13 10:40:32;;;;;;;19.80;4.78;;;;;;;;;;4925223;29;20048;-68
2023/03/13 10:43:01;;;;;;;22.70;5.25;;;;;;;;;;4925440;29;20545;-78
2023/03/13 10:45:31;;;;;;;24.27;5.22;;;;;;;;;;4926300;29;20349;-75
2023/03/13 10:48:01;;;;;;;21.95;5.18;;;;;;;;;;4913048;29;20515;-69
2023/03/13 10:50:27;;;;;;;23.10;5.25;;;;;;;;;;4927946;28;20056;-76
2023/03/13 10:52:54;;;;;;;26.65;5.90;;;;;;;;;;4911351;29;20047;-74
2023/03/13 10:55:21;;;;;;;23.38;4.68;;;;;;;;;;4928165;29;20159;-70
2023/03/13 10:57:59;;;;;;;23.35;5.38;;;;;;;;;;4927058;29;20039;-71
2023/03/13 11:00:29;;;;;;;22.08;4.22;;;;;;;;;;4922723;29;20115;-74
2023/03/13 11:02:56;;;;;;;29.55;6.63;;;;;;;;;;4905432;29;20057;-78
2023/03/13 11:05:23;;;;;;;24.33;5.07;;;;;;;;;;4907916;29;20044;-67
2023/03/13 11:07:49;;;;;;;27.65;5.18;;;;;;;;;;4926607;29;20044;-63
2023/03/13 11:10:19;;;;;;;23.08;5.13;;;;;;;;;;4928004;29;20156;-66
2023/03/13 11:12:46;;;;;;;28.05;4.57;;;;;;;;;;4930509;29;20043;-70
2023/03/13 11:15:14;;;;;;;24.65;6.10;;;;;;;;;;4929669;29;20047;-68
2023/03/13 11:17:41;;;;;;;17.60;5.32;;;;;;;;;;4930378;29;20077;-68
2023/03/13 11:20:14;;;;;;;24.00;5.15;;;;;;;;;;4931149;29;20076;-68
2023/03/13 11:22:47;;;;;;;20.10;4.00;;;;;;;;;;4928837;29;20491;-68
2023/03/13 11:25:19;;;;;;;21.57;4.60;;;;;;;;;;4927600;29;20418;-68
2023/03/13 11:27:48;;;;;;;27.88;5.50;;;;;;;;;;4928350;29;20200;-66
2023/03/13 11:30:25;;;;;;;23.42;4.65;;;;;;;;;;4926204;29;20078;-66
2023/03/13 11:33:02;;;;;;;25.15;5.05;;;;;;;;;;4929350;29;20047;-66
2023/03/13 11:35:41;;;;;;;21.33;4.50;;;;;;;;;;4925728;29;20138;-66
2023/03/13 11:38:18;;;;;;;17.55;4.22;;;;;;;;;;4927661;29;20127;-66
2023/03/13 11:41:04;;;;;;;19.52;4.53;;;;;;;;;;4904966;29;20051;-66
2023/03/13 11:43:30;;;;;;;25.05;5.93;;;;;;;;;;4925577;29;20083;-66
2023/03/13 11:46:08;;;;;;;23.10;4.70;;;;;;;;;;4926364;29;20047;-66
2023/03/13 11:48:35;;;;;;;20.15;3.97;;;;;;;;;;4924676;29;20055;-66
2023/03/13 11:51:12;;;;;;;22.98;4.95;;;;;;;;;;4922162;29;20500;-66
2023/03/13 11:53:39;;;;;;;22.13;4.68;;;;;;;;;;4922496;29;20052;-65
2023/03/13 11:56:08;;;;;;;20.63;5.57;;;;;;;;;;4926221;29;20135;-73
2023/03/13 11:58:50;;;;;;;26.38;5.32;;;;;;;;;;4906840;29;20134;-66
2023/03/13 12:01:18;;;;;;;23.20;4.82;;;;;;;;;;4922897;29;20046;-66
2023/03/13 12:03:44;;;;;;;29.83;6.07;;;;;;;;;;4908196;29;20403;-65
2023/03/13 12:06:15;;;;;;;26.00;5.75;;;;;;;;;;4925650;29;20123;-65
2023/03/13 12:08:45;;;;;;;21.38;4.97;;;;;;;;;;4907629;29;20488;-65
2023/03/13 12:11:21;;;;;;;36.15;6.65;;;;;;;;;;4924504;29;20047;-66
2023/03/13 12:13:51;;;;;;;23.40;5.78;;;;;;;;;;4924343;29;20432;-64
2023/03/13 12:16:20;;;;;;;26.70;5.28;;;;;;;;;;4914725;29;20042;-66
2023/03/13 12:18:48;;;;;;;26.48;5.32;;;;;;;;;;4932004;29;20055;-66
2023/03/13 12:21:23;;;;;;;22.95;5.72;;;;;;;;;;4916132;29;20044;-65
2023/03/13 12:24:00;;;;;;;22.42;5.00;;;;;;;;;;4930356;29;20048;-65
2023/03/13 12:26:33;;;;;;;24.45;5.97;;;;;;;;;;4928061;29;20040;-84
2023/03/13 12:29:06;;;;;;;27.67;6.13;;;;;;;;;;4933014;29;20051;-85
2023/03/13 12:31:35;;;;;;;32.58;5.70;;;;;;;;;;4932339;29;20036;-71
2023/03/13 12:34:09;;;;;;;26.30;5.25;;;;;;;;;;4914752;29;20040;-69
2023/03/13 12:36:39;;;;;;;21.13;5.80;;;;;;;;;;4915536;29;20059;-70
2023/03/13 12:39:24;;;;;;;21.50;5.85;;;;;;;;;;4912563;29;20135;-70
2023/03/13 12:42:06;;;;;;;25.88;6.20;;;;;;;;;;4928882;29;20054;-78
2023/03/13 12:44:33;;;;;;;30.75;6.72;;;;;;;;;;4928444;29;20103;-63
2023/03/13 12:47:07;;;;;;;26.40;5.53;;;;;;;;;;4930174;29;20475;-64
2023/03/13 12:49:37;;;;;;;29.27;5.38;;;;;;;;;;4929360;28;20067;-74
2023/03/13 12:52:22;;;;;;;24.30;5.70;;;;;;;;;;4918213;29;20052;-78
2023/03/13 12:54:48;;;;;;;27.80;6.22;;;;;;;;;;4913031;29;20521;-68
2023/03/13 12:57:21;;;;;;;25.08;5.72;;;;;;;;;;4928432;29;20091;-66
2023/03/13 12:59:52;;;;;;;24.45;5.25;;;;;;;;;;4927511;29;20043;-65
2023/03/13 13:02:21;;;;;;;30.50;6.35;;;;;;;;;;4931177;29;20380;-74
2023/03/13 13:04:49;;;;;;;30.20;5.55;;;;;;;;;;4910585;29;20675;-74
2023/03/13 13:07:22;;;;;;;28.90;6.47;;;;;;;;;;4925635;29;20060;-71
2023/03/13 13:10:00;;;;;;;25.83;6.75;;;;;;;;;;4928590;29;20050;-72
2023/03/13 13:12:26;;;;;;;29.45;7.13;;;;;;;;;;4928492;29;20040;-72
2023/03/13 13:14:53;;;;;;;25.15;5.97;;;;;;;;;;4928981;29;20436;-72
2023/03/13 13:17:23;;;;;;;26.35;5.78;;;;;;;;;;4926801;29;20810;-72
2023/03/13 13:19:49;;;;;;;29.30;7.03;;;;;;;;;;4927420;29;20136;-70
2023/03/13 13:22:44;;;;;;;30.35;5.75;;;;;;;;;;4913446;29;20138;-87
2023/03/13 13:25:11;;;;;;;30.30;6.30;;;;;;;;;;4910300;29;20132;-78
2023/03/13 13:27:37;;;;;;;28.40;6.15;;;;;;;;;;4931265;29;20048;-68
2023/03/13 13:30:05;;;;;;;23.48;5.90;;;;;;;;;;4931871;29;20056;-66
2023/03/13 13:32:33;;;;;;;29.52;5.63;;;;;;;;;;4931419;29;20071;-67
2023/03/13 13:35:05;;;;;;;29.23;6.22;;;;;;;;;;4931015;29;20455;-67
2023/03/13 13:37:31;;;;;;;31.77;7.25;;;;;;;;;;4931393;29;20056;-76
2023/03/13 13:40:16;;;;;;;30.85;5.72;;;;;;;;;;4927103;29;20044;-67
2023/03/13 13:42:58;;;;;;;29.73;6.53;;;;;;;;;;4927698;29;20055;-66
2023/03/13 13:45:37;;;;;;;29.17;7.60;;;;;;;;;;4926253;29;20051;-67
2023/03/13 13:48:15;;;;;;;27.80;5.78;;;;;;;;;;4909409;29;20463;-67
2023/03/13 13:51:00;;;;;;;25.95;6.13;;;;;;;;;;4910650;29;20059;-67
2023/03/13 13:53:49;;;;;;;26.73;6.32;;;;;;;;;;4925319;29;20052;-67
2023/03/13 13:56:27;;;;;;;38.28;7.68;;;;;;;;;;4910546;29;20131;-67
2023/03/13 13:58:58;;;;;;;27.10;6.00;;;;;;;;;;4927954;29;20455;-66
2023/03/13 14:01:24;;;;;;;29.30;5.80;;;;;;;;;;4906610;29;20684;-66
2023/03/13 14:03:51;;;;;;;29.33;6.50;;;;;;;;;;4910094;29;20058;-66
2023/03/13 14:06:19;;;;;;;37.60;7.65;;;;;;;;;;4926710;29;20040;-65
2023/03/13 14:08:46;;;;;;;29.52;6.63;;;;;;;;;;4926935;29;20043;-65
2023/03/13 14:11:14;;;;;;;38.92;7.40;;;;;;;;;;4909762;29;20325;-66
2023/03/13 14:13:40;;;;;;;26.08;6.65;;;;;;;;;;4926830;29;20675;-64
2023/03/13 14:16:19;;;;;;;26.90;5.45;;;;;;;;;;4928202;29;21142;-65
2023/03/13 14:18:45;;;;;;;29.02;6.95;;;;;;;;;;4929576;29;20044;-66
2023/03/13 14:21:13;;;;;;;34.63;7.13;;;;;;;;;;4928227;29;20044;-66
2023/03/13 14:23:41;;;;;;;29.00;6.63;;;;;;;;;;4927514;29;20102;-66
2023/03/13 14:26:09;;;;;;;35.53;6.72;;;;;;;;;;4929064;29;20474;-66
2023/03/13 14:28:38;;;;;;;32.80;7.00;;;;;;;;;;4909218;29;20044;-65
2023/03/13 14:31:04;;;;;;;33.08;6.85;;;;;;;;;;4924175;29;20171;-66